Etusivu
METAR-TAF:

METAR-TAF

Lentoasemat :

Lyndonville, Vermont, Yhdysvallat

Leveyspiiri: 44-34-09N, Pituuspiiri: 072-01-05W, korkeus merenpinnasta: 362 m

Tämänhetkinen sää

Tämä raportti tehtiin 15 minuuttia sitten, kello 11.15 UTC
tyyntä
Lämpötila 3°C
Kosteus 100%
Ilmanpaine 1020 hPa
Näkyvyys: 4.0 km
selkeää
utua

METAR: KCDA 181115Z AUTO 00000KT 2 1/2SM BR CLR 03/03 A3011 RMK AO2 T00320029

Aika: 07:30 (11:30 UTC)


TAF: puuttuu

Säähavainnot ja -ennusteet yli 4000 lentoasemalta (METAR- ja TAF-raportit).

Käytössä olevat sääasemat on merkitty karttaan keltaisilla ja punaisilla pisteillä.

Aseta hiiri pisteen päälle nähdäksesi sääaseman nimen.

Klikkaa sitten nähdäksesi säähavainnot ja -ennusteet.

Kartan vaihtaminen: klikkaa mustalla rastilla varustettuja vihreitä pisteitä, niin voit zoomata sisään; viivalla varustettua vihreää pistettä, niin voit zoomata ulos tai vihreitä nuolia, niin pääset viereisille kartoille.


METAR-TAF: